sensor_id;sensor_type;location;lat;lon;timestamp;temperature;humidity
674;DHT22;319;48.764;9.174;2023-05-07T00:01:41;16.90;99.90
674;DHT22;319;48.764;9.174;2023-05-07T00:04:08;16.90;99.90
674;DHT22;319;48.764;9.174;2023-05-07T00:06:36;16.80;99.90
674;DHT22;319;48.764;9.174;2023-05-07T00:09:04;16.80;99.90
674;DHT22;319;48.764;9.174;2023-05-07T00:11:31;16.60;99.90
674;DHT22;319;48.764;9.174;2023-05-07T00:13:57;16.70;99.90
674;DHT22;319;48.764;9.174;2023-05-07T00:16:24;16.70;99.90
674;DHT22;319;48.764;9.174;2023-05-07T00:18:52;16.60;99.90
674;DHT22;319;48.764;9.174;2023-05-07T00:21:19;16.60;99.90
674;DHT22;319;48.764;9.174;2023-05-07T00:23:48;16.60;99.90
674;DHT22;319;48.764;9.174;2023-05-07T00:26:16;16.60;99.90
674;DHT22;319;48.764;9.174;2023-05-07T00:28:42;16.60;99.90
674;DHT22;319;48.764;9.174;2023-05-07T00:31:09;16.60;99.90
674;DHT22;319;48.764;9.174;2023-05-07T00:33:37;16.60;99.90
674;DHT22;319;48.764;9.174;2023-05-07T00:36:05;16.60;99.90
674;DHT22;319;48.764;9.174;2023-05-07T00:38:32;16.60;99.90
674;DHT22;319;48.764;9.174;2023-05-07T00:41:00;16.60;99.90
674;DHT22;319;48.764;9.174;2023-05-07T00:43:27;16.60;99.90
674;DHT22;319;48.764;9.174;2023-05-07T00:45:55;16.50;99.90
674;DHT22;319;48.764;9.174;2023-05-07T00:48:22;16.50;99.90
674;DHT22;319;48.764;9.174;2023-05-07T00:50:49;16.40;99.90
674;DHT22;319;48.764;9.174;2023-05-07T00:53:17;16.30;99.90
674;DHT22;319;48.764;9.174;2023-05-07T00:55:44;16.40;99.90
674;DHT22;319;48.764;9.174;2023-05-07T00:58:12;16.30;99.90
674;DHT22;319;48.764;9.174;2023-05-07T01:00:39;16.30;99.90
674;DHT22;319;48.764;9.174;2023-05-07T01:03:07;16.30;99.90
674;DHT22;319;48.764;9.174;2023-05-07T01:05:34;16.20;99.90
674;DHT22;319;48.764;9.174;2023-05-07T01:08:02;16.30;99.90
674;DHT22;319;48.764;9.174;2023-05-07T01:10:30;16.20;99.90
674;DHT22;319;48.764;9.174;2023-05-07T01:12:58;16.10;99.90
674;DHT22;319;48.764;9.174;2023-05-07T01:15:27;16.20;99.90
674;DHT22;319;48.764;9.174;2023-05-07T01:17:55;16.20;99.90
674;DHT22;319;48.764;9.174;2023-05-07T01:20:23;16.10;99.90
674;DHT22;319;48.764;9.174;2023-05-07T01:22:52;16.10;99.90
674;DHT22;319;48.764;9.174;2023-05-07T01:25:20;16.00;99.90
674;DHT22;319;48.764;9.174;2023-05-07T01:27:47;16.00;99.90
674;DHT22;319;48.764;9.174;2023-05-07T01:30:14;16.00;99.90
674;DHT22;319;48.764;9.174;2023-05-07T01:32:43;16.00;99.90
674;DHT22;319;48.764;9.174;2023-05-07T01:35:13;16.10;99.90
674;DHT22;319;48.764;9.174;2023-05-07T01:37:41;16.00;99.90
674;DHT22;319;48.764;9.174;2023-05-07T01:40:10;16.00;99.90
674;DHT22;319;48.764;9.174;2023-05-07T01:42:37;15.90;99.90
674;DHT22;319;48.764;9.174;2023-05-07T01:45:05;15.90;99.90
674;DHT22;319;48.764;9.174;2023-05-07T01:47:33;15.90;99.90
674;DHT22;319;48.764;9.174;2023-05-07T01:50:00;15.90;99.90
674;DHT22;319;48.764;9.174;2023-05-07T01:52:28;15.90;99.90
674;DHT22;319;48.764;9.174;2023-05-07T01:54:55;15.90;99.90
674;DHT22;319;48.764;9.174;2023-05-07T01:57:23;15.90;99.90
674;DHT22;319;48.764;9.174;2023-05-07T01:59:50;15.90;99.90
674;DHT22;319;48.764;9.174;2023-05-07T02:02:17;15.90;99.90
674;DHT22;319;48.764;9.174;2023-05-07T02:04:44;16.00;99.90
674;DHT22;319;48.764;9.174;2023-05-07T02:07:11;16.00;99.90
674;DHT22;319;48.764;9.174;2023-05-07T02:09:38;15.90;99.90
674;DHT22;319;48.764;9.174;2023-05-07T02:12:05;15.80;99.90
674;DHT22;319;48.764;9.174;2023-05-07T02:14:33;15.80;99.90
674;DHT22;319;48.764;9.174;2023-05-07T02:17:00;15.80;99.90
674;DHT22;319;48.764;9.174;2023-05-07T02:19:27;15.80;99.90
674;DHT22;319;48.764;9.174;2023-05-07T02:21:54;15.80;99.90
674;DHT22;319;48.764;9.174;2023-05-07T02:24:21;15.80;99.90
674;DHT22;319;48.764;9.174;2023-05-07T02:26:48;15.80;99.90
674;DHT22;319;48.764;9.174;2023-05-07T02:29:15;15.70;99.90
674;DHT22;319;48.764;9.174;2023-05-07T02:31:43;15.80;99.90
674;DHT22;319;48.764;9.174;2023-05-07T02:34:19;15.80;99.90
674;DHT22;319;48.764;9.174;2023-05-07T02:36:46;15.80;99.90
674;DHT22;319;48.764;9.174;2023-05-07T02:39:14;15.80;99.90
674;DHT22;319;48.764;9.174;2023-05-07T02:41:41;15.70;99.90
674;DHT22;319;48.764;9.174;2023-05-07T02:44:07;15.70;99.90
674;DHT22;319;48.764;9.174;2023-05-07T02:46:34;15.70;99.90
674;DHT22;319;48.764;9.174;2023-05-07T02:49:02;15.70;99.90
674;DHT22;319;48.764;9.174;2023-05-07T02:51:30;15.60;99.90
674;DHT22;319;48.764;9.174;2023-05-07T02:53:57;15.60;99.90
674;DHT22;319;48.764;9.174;2023-05-07T02:56:26;15.60;99.90
674;DHT22;319;48.764;9.174;2023-05-07T02:58:53;15.50;99.90
674;DHT22;319;48.764;9.174;2023-05-07T03:01:20;15.40;99.90
674;DHT22;319;48.764;9.174;2023-05-07T03:03:47;15.30;99.90
674;DHT22;319;48.764;9.174;2023-05-07T03:06:15;15.40;99.90
674;DHT22;319;48.764;9.174;2023-05-07T03:08:42;15.40;99.90
674;DHT22;319;48.764;9.174;2023-05-07T03:11:10;15.40;99.90
674;DHT22;319;48.764;9.174;2023-05-07T03:13:37;15.40;99.90
674;DHT22;319;48.764;9.174;2023-05-07T03:16:04;15.40;99.90
674;DHT22;319;48.764;9.174;2023-05-07T03:18:31;15.40;99.90
674;DHT22;319;48.764;9.174;2023-05-07T03:20:58;15.30;99.90
674;DHT22;319;48.764;9.174;2023-05-07T03:23:26;15.20;99.90
674;DHT22;319;48.764;9.174;2023-05-07T03:25:53;15.20;99.90
674;DHT22;319;48.764;9.174;2023-05-07T03:28:20;15.20;99.90
674;DHT22;319;48.764;9.174;2023-05-07T03:30:47;15.20;99.90
674;DHT22;319;48.764;9.174;2023-05-07T03:33:14;15.10;99.90
674;DHT22;319;48.764;9.174;2023-05-07T03:35:41;15.10;99.90
674;DHT22;319;48.764;9.174;2023-05-07T03:38:08;15.00;99.90
674;DHT22;319;48.764;9.174;2023-05-07T03:40:36;14.90;99.90
674;DHT22;319;48.764;9.174;2023-05-07T03:43:03;14.90;99.90
674;DHT22;319;48.764;9.174;2023-05-07T03:45:30;15.00;99.90
674;DHT22;319;48.764;9.174;2023-05-07T03:47:57;14.90;99.90
674;DHT22;319;48.764;9.174;2023-05-07T03:50:24;15.00;99.90
674;DHT22;319;48.764;9.174;2023-05-07T03:52:51;15.00;99.90
674;DHT22;319;48.764;9.174;2023-05-07T03:55:18;15.00;99.90
674;DHT22;319;48.764;9.174;2023-05-07T03:57:46;15.00;99.90
674;DHT22;319;48.764;9.174;2023-05-07T04:00:13;14.90;99.90
674;DHT22;319;48.764;9.174;2023-05-07T04:02:40;14.90;99.90
674;DHT22;319;48.764;9.174;2023-05-07T04:05:08;14.90;99.90
674;DHT22;319;48.764;9.174;2023-05-07T04:07:35;15.00;99.90
674;DHT22;319;48.764;9.174;2023-05-07T04:10:02;14.90;99.90
674;DHT22;319;48.764;9.174;2023-05-07T04:12:29;14.90;99.90
674;DHT22;319;48.764;9.174;2023-05-07T04:14:57;14.90;99.90
674;DHT22;319;48.764;9.174;2023-05-07T04:17:24;15.00;99.90
674;DHT22;319;48.764;9.174;2023-05-07T04:19:51;14.90;99.90
674;DHT22;319;48.764;9.174;2023-05-07T04:22:18;14.90;99.90
674;DHT22;319;48.764;9.174;2023-05-07T04:24:45;14.90;99.90
674;DHT22;319;48.764;9.174;2023-05-07T04:27:12;15.00;99.90
674;DHT22;319;48.764;9.174;2023-05-07T04:29:38;15.00;99.90
674;DHT22;319;48.764;9.174;2023-05-07T04:32:09;15.10;99.90
674;DHT22;319;48.764;9.174;2023-05-07T04:34:35;15.10;99.90
674;DHT22;319;48.764;9.174;2023-05-07T04:37:02;15.20;99.90
674;DHT22;319;48.764;9.174;2023-05-07T04:39:29;15.20;99.90
674;DHT22;319;48.764;9.174;2023-05-07T04:41:56;15.20;99.90
674;DHT22;319;48.764;9.174;2023-05-07T04:44:23;15.20;99.90
674;DHT22;319;48.764;9.174;2023-05-07T04:46:50;15.30;99.90
674;DHT22;319;48.764;9.174;2023-05-07T04:49:18;15.30;99.90
674;DHT22;319;48.764;9.174;2023-05-07T04:51:45;15.30;99.90
674;DHT22;319;48.764;9.174;2023-05-07T04:54:12;15.30;99.90
674;DHT22;319;48.764;9.174;2023-05-07T04:56:39;15.30;99.90
674;DHT22;319;48.764;9.174;2023-05-07T04:59:06;15.30;99.90
674;DHT22;319;48.764;9.174;2023-05-07T05:01:33;15.30;99.90
674;DHT22;319;48.764;9.174;2023-05-07T05:04:00;15.30;99.90
674;DHT22;319;48.764;9.174;2023-05-07T05:06:28;15.40;99.90
674;DHT22;319;48.764;9.174;2023-05-07T05:08:56;15.40;99.90
674;DHT22;319;48.764;9.174;2023-05-07T05:11:22;15.40;99.90
674;DHT22;319;48.764;9.174;2023-05-07T05:13:49;15.40;99.90
674;DHT22;319;48.764;9.174;2023-05-07T05:16:16;15.50;99.90
674;DHT22;319;48.764;9.174;2023-05-07T05:18:43;15.50;99.90
674;DHT22;319;48.764;9.174;2023-05-07T05:21:10;15.50;99.90
674;DHT22;319;48.764;9.174;2023-05-07T05:23:38;15.60;99.90
674;DHT22;319;48.764;9.174;2023-05-07T05:26:05;15.60;99.90
674;DHT22;319;48.764;9.174;2023-05-07T05:28:32;15.70;99.90
674;DHT22;319;48.764;9.174;2023-05-07T05:30:59;15.80;99.90
674;DHT22;319;48.764;9.174;2023-05-07T05:33:25;16.10;99.90
674;DHT22;319;48.764;9.174;2023-05-07T05:35:53;16.10;99.90
674;DHT22;319;48.764;9.174;2023-05-07T05:38:20;16.20;99.90
674;DHT22;319;48.764;9.174;2023-05-07T05:40:48;16.30;99.90
674;DHT22;319;48.764;9.174;2023-05-07T05:43:15;16.40;99.90
674;DHT22;319;48.764;9.174;2023-05-07T05:45:42;16.50;99.90
674;DHT22;319;48.764;9.174;2023-05-07T05:48:09;16.70;99.90
674;DHT22;319;48.764;9.174;2023-05-07T05:50:36;16.80;99.90
674;DHT22;319;48.764;9.174;2023-05-07T05:53:03;16.90;99.90
674;DHT22;319;48.764;9.174;2023-05-07T05:55:30;17.10;99.90
674;DHT22;319;48.764;9.174;2023-05-07T05:57:59;17.20;99.90
674;DHT22;319;48.764;9.174;2023-05-07T06:00:26;17.30;99.90
674;DHT22;319;48.764;9.174;2023-05-07T06:02:53;17.50;99.90
674;DHT22;319;48.764;9.174;2023-05-07T06:05:20;17.60;99.90
674;DHT22;319;48.764;9.174;2023-05-07T06:07:47;17.70;99.90
674;DHT22;319;48.764;9.174;2023-05-07T06:10:14;18.00;99.80
674;DHT22;319;48.764;9.174;2023-05-07T06:12:41;18.10;99.40
674;DHT22;319;48.764;9.174;2023-05-07T06:15:10;18.30;99.30
674;DHT22;319;48.764;9.174;2023-05-07T06:17:37;18.70;98.70
674;DHT22;319;48.764;9.174;2023-05-07T06:20:05;19.10;98.10
674;DHT22;319;48.764;9.174;2023-05-07T06:22:32;19.50;97.30
674;DHT22;319;48.764;9.174;2023-05-07T06:24:59;19.90;96.60
674;DHT22;319;48.764;9.174;2023-05-07T06:27:26;20.20;95.60
674;DHT22;319;48.764;9.174;2023-05-07T06:29:53;20.90;94.90
674;DHT22;319;48.764;9.174;2023-05-07T06:32:22;21.50;93.50
674;DHT22;319;48.764;9.174;2023-05-07T06:34:51;21.40;92.70
674;DHT22;319;48.764;9.174;2023-05-07T06:37:18;21.50;92.80
674;DHT22;319;48.764;9.174;2023-05-07T06:39:45;21.50;92.60
674;DHT22;319;48.764;9.174;2023-05-07T06:42:12;21.50;92.80
674;DHT22;319;48.764;9.174;2023-05-07T06:44:38;21.90;92.70
674;DHT22;319;48.764;9.174;2023-05-07T06:47:05;22.50;91.60
674;DHT22;319;48.764;9.174;2023-05-07T06:49:33;23.30;91.00
674;DHT22;319;48.764;9.174;2023-05-07T06:52:00;23.50;88.50
674;DHT22;319;48.764;9.174;2023-05-07T06:54:27;24.00;89.20
674;DHT22;319;48.764;9.174;2023-05-07T06:56:54;25.20;86.10
674;DHT22;319;48.764;9.174;2023-05-07T06:59:21;26.50;81.10
674;DHT22;319;48.764;9.174;2023-05-07T07:01:48;27.50;76.20
674;DHT22;319;48.764;9.174;2023-05-07T07:04:15;28.50;72.80
674;DHT22;319;48.764;9.174;2023-05-07T07:06:43;29.60;68.30
674;DHT22;319;48.764;9.174;2023-05-07T07:09:10;30.60;63.60
674;DHT22;319;48.764;9.174;2023-05-07T07:11:37;31.30;59.90
674;DHT22;319;48.764;9.174;2023-05-07T07:14:04;31.80;57.40
674;DHT22;319;48.764;9.174;2023-05-07T07:16:31;31.70;56.40
674;DHT22;319;48.764;9.174;2023-05-07T07:18:58;32.20;55.60
674;DHT22;319;48.764;9.174;2023-05-07T07:21:25;32.20;54.50
674;DHT22;319;48.764;9.174;2023-05-07T07:23:53;32.20;53.80
674;DHT22;319;48.764;9.174;2023-05-07T07:26:20;32.10;53.90
674;DHT22;319;48.764;9.174;2023-05-07T07:28:47;32.60;52.70
674;DHT22;319;48.764;9.174;2023-05-07T07:31:14;32.50;52.10
674;DHT22;319;48.764;9.174;2023-05-07T07:33:42;32.90;51.90
674;DHT22;319;48.764;9.174;2023-05-07T07:36:09;32.90;51.00
674;DHT22;319;48.764;9.174;2023-05-07T07:38:36;33.00;50.50
674;DHT22;319;48.764;9.174;2023-05-07T07:41:04;33.00;50.70
674;DHT22;319;48.764;9.174;2023-05-07T07:43:31;33.00;50.20
674;DHT22;319;48.764;9.174;2023-05-07T07:45:58;33.40;50.40
674;DHT22;319;48.764;9.174;2023-05-07T07:48:25;33.70;49.30
674;DHT22;319;48.764;9.174;2023-05-07T07:50:52;34.20;48.20
674;DHT22;319;48.764;9.174;2023-05-07T07:53:19;34.30;47.10
674;DHT22;319;48.764;9.174;2023-05-07T07:55:46;33.70;47.50
674;DHT22;319;48.764;9.174;2023-05-07T07:58:14;33.00;48.80
674;DHT22;319;48.764;9.174;2023-05-07T08:00:41;32.40;49.30
674;DHT22;319;48.764;9.174;2023-05-07T08:03:09;31.80;50.50
674;DHT22;319;48.764;9.174;2023-05-07T08:05:36;31.00;51.70
674;DHT22;319;48.764;9.174;2023-05-07T08:08:04;30.80;52.50
674;DHT22;319;48.764;9.174;2023-05-07T08:10:34;30.70;52.70
674;DHT22;319;48.764;9.174;2023-05-07T08:13:05;30.50;53.00
674;DHT22;319;48.764;9.174;2023-05-07T08:15:35;30.30;53.30
674;DHT22;319;48.764;9.174;2023-05-07T08:18:02;30.20;54.00
674;DHT22;319;48.764;9.174;2023-05-07T08:20:29;30.10;54.00
674;DHT22;319;48.764;9.174;2023-05-07T08:22:56;29.90;54.10
674;DHT22;319;48.764;9.174;2023-05-07T08:25:23;29.90;54.30
674;DHT22;319;48.764;9.174;2023-05-07T08:27:50;30.10;54.20
674;DHT22;319;48.764;9.174;2023-05-07T08:30:17;30.70;54.00
674;DHT22;319;48.764;9.174;2023-05-07T08:32:46;31.30;52.80
674;DHT22;319;48.764;9.174;2023-05-07T08:35:13;31.60;51.80
674;DHT22;319;48.764;9.174;2023-05-07T08:37:40;32.00;50.80
674;DHT22;319;48.764;9.174;2023-05-07T08:40:07;31.90;50.80
674;DHT22;319;48.764;9.174;2023-05-07T08:42:36;31.50;51.40
674;DHT22;319;48.764;9.174;2023-05-07T08:45:04;31.10;52.10
674;DHT22;319;48.764;9.174;2023-05-07T08:47:42;30.70;52.80
674;DHT22;319;48.764;9.174;2023-05-07T08:50:12;30.60;53.20
674;DHT22;319;48.764;9.174;2023-05-07T08:52:39;30.70;52.90
674;DHT22;319;48.764;9.174;2023-05-07T08:55:07;30.60;53.30
674;DHT22;319;48.764;9.174;2023-05-07T08:57:35;31.00;52.50
674;DHT22;319;48.764;9.174;2023-05-07T09:00:02;30.90;52.20
674;DHT22;319;48.764;9.174;2023-05-07T09:02:30;30.90;52.40
674;DHT22;319;48.764;9.174;2023-05-07T09:04:57;30.80;52.70
674;DHT22;319;48.764;9.174;2023-05-07T09:07:25;30.20;53.40
674;DHT22;319;48.764;9.174;2023-05-07T09:09:53;29.90;54.10
674;DHT22;319;48.764;9.174;2023-05-07T09:12:20;29.40;55.00
674;DHT22;319;48.764;9.174;2023-05-07T09:14:47;29.10;55.60
674;DHT22;319;48.764;9.174;2023-05-07T09:17:15;28.60;56.50
674;DHT22;319;48.764;9.174;2023-05-07T09:19:43;27.80;58.10
674;DHT22;319;48.764;9.174;2023-05-07T09:22:10;27.10;59.10
674;DHT22;319;48.764;9.174;2023-05-07T09:24:39;26.50;60.70
674;DHT22;319;48.764;9.174;2023-05-07T09:27:07;26.20;62.50
674;DHT22;319;48.764;9.174;2023-05-07T09:29:35;26.20;63.00
674;DHT22;319;48.764;9.174;2023-05-07T09:32:03;26.00;63.60
674;DHT22;319;48.764;9.174;2023-05-07T09:34:30;25.90;64.40
674;DHT22;319;48.764;9.174;2023-05-07T09:36:58;25.90;64.90
674;DHT22;319;48.764;9.174;2023-05-07T09:39:40;25.90;64.20
674;DHT22;319;48.764;9.174;2023-05-07T09:42:07;25.90;63.30
674;DHT22;319;48.764;9.174;2023-05-07T09:44:34;25.80;63.70
674;DHT22;319;48.764;9.174;2023-05-07T09:47:04;25.80;63.70
674;DHT22;319;48.764;9.174;2023-05-07T09:49:34;25.80;64.70
674;DHT22;319;48.764;9.174;2023-05-07T09:52:03;25.60;63.00
674;DHT22;319;48.764;9.174;2023-05-07T09:54:32;25.50;64.80
674;DHT22;319;48.764;9.174;2023-05-07T09:57:01;25.50;65.40
674;DHT22;319;48.764;9.174;2023-05-07T09:59:31;25.60;65.50
674;DHT22;319;48.764;9.174;2023-05-07T10:02:01;25.50;65.80
674;DHT22;319;48.764;9.174;2023-05-07T10:04:31;25.60;65.60
674;DHT22;319;48.764;9.174;2023-05-07T10:06:59;25.70;66.50
674;DHT22;319;48.764;9.174;2023-05-07T10:09:27;25.70;66.60
674;DHT22;319;48.764;9.174;2023-05-07T10:11:55;25.80;66.60
674;DHT22;319;48.764;9.174;2023-05-07T10:14:24;25.90;66.00
674;DHT22;319;48.764;9.174;2023-05-07T10:16:52;25.80;64.90
674;DHT22;319;48.764;9.174;2023-05-07T10:19:20;25.90;66.30
674;DHT22;319;48.764;9.174;2023-05-07T10:21:51;25.90;66.20
674;DHT22;319;48.764;9.174;2023-05-07T10:24:25;26.00;66.50
674;DHT22;319;48.764;9.174;2023-05-07T10:26:53;26.10;66.50
674;DHT22;319;48.764;9.174;2023-05-07T10:29:33;26.10;65.80
674;DHT22;319;48.764;9.174;2023-05-07T10:32:19;26.10;66.30
674;DHT22;319;48.764;9.174;2023-05-07T10:34:55;26.30;66.10
674;DHT22;319;48.764;9.174;2023-05-07T10:37:23;26.40;65.70
674;DHT22;319;48.764;9.174;2023-05-07T10:39:51;26.50;65.00
674;DHT22;319;48.764;9.174;2023-05-07T10:42:19;26.60;64.70
674;DHT22;319;48.764;9.174;2023-05-07T10:44:48;26.90;64.70
674;DHT22;319;48.764;9.174;2023-05-07T10:47:21;27.10;64.60
674;DHT22;319;48.764;9.174;2023-05-07T10:50:22;27.30;60.80
674;DHT22;319;48.764;9.174;2023-05-07T10:56:24;27.50;59.40
674;DHT22;319;48.764;9.174;2023-05-07T10:58:52;27.40;60.40
674;DHT22;319;48.764;9.174;2023-05-07T11:01:53;27.40;59.90
674;DHT22;319;48.764;9.174;2023-05-07T11:04:20;27.20;61.80
674;DHT22;319;48.764;9.174;2023-05-07T11:07:26;27.00;62.60
674;DHT22;319;48.764;9.174;2023-05-07T11:10:08;27.20;62.70
674;DHT22;319;48.764;9.174;2023-05-07T11:12:54;27.50;62.20
674;DHT22;319;48.764;9.174;2023-05-07T11:15:39;27.60;61.40
674;DHT22;319;48.764;9.174;2023-05-07T11:18:09;27.40;62.30
674;DHT22;319;48.764;9.174;2023-05-07T11:20:56;27.40;62.00
674;DHT22;319;48.764;9.174;2023-05-07T11:23:55;27.60;61.60
674;DHT22;319;48.764;9.174;2023-05-07T11:26:27;27.60;60.20
674;DHT22;319;48.764;9.174;2023-05-07T11:28:54;27.60;59.40
674;DHT22;319;48.764;9.174;2023-05-07T11:31:24;27.80;58.40
674;DHT22;319;48.764;9.174;2023-05-07T11:33:54;27.80;57.80
674;DHT22;319;48.764;9.174;2023-05-07T11:36:22;27.70;57.80
674;DHT22;319;48.764;9.174;2023-05-07T11:38:49;27.80;56.90
674;DHT22;319;48.764;9.174;2023-05-07T11:41:17;27.80;56.00
674;DHT22;319;48.764;9.174;2023-05-07T11:43:56;27.50;56.70
674;DHT22;319;48.764;9.174;2023-05-07T11:46:23;27.10;58.80
674;DHT22;319;48.764;9.174;2023-05-07T11:48:50;26.90;59.80
674;DHT22;319;48.764;9.174;2023-05-07T11:51:23;26.90;59.00
674;DHT22;319;48.764;9.174;2023-05-07T11:53:52;26.70;58.80
674;DHT22;319;48.764;9.174;2023-05-07T11:56:19;26.80;59.50
674;DHT22;319;48.764;9.174;2023-05-07T11:58:47;26.90;58.40
674;DHT22;319;48.764;9.174;2023-05-07T12:01:15;26.70;59.70
674;DHT22;319;48.764;9.174;2023-05-07T12:03:45;26.40;61.60
674;DHT22;319;48.764;9.174;2023-05-07T12:06:13;26.20;62.90
674;DHT22;319;48.764;9.174;2023-05-07T12:08:43;26.00;63.40
674;DHT22;319;48.764;9.174;2023-05-07T12:11:13;25.90;64.00
674;DHT22;319;48.764;9.174;2023-05-07T12:13:41;25.80;66.00
674;DHT22;319;48.764;9.174;2023-05-07T12:16:08;25.50;69.00
674;DHT22;319;48.764;9.174;2023-05-07T12:18:36;25.30;70.50
674;DHT22;319;48.764;9.174;2023-05-07T12:21:05;24.90;74.10
674;DHT22;319;48.764;9.174;2023-05-07T12:23:34;24.10;65.40
674;DHT22;319;48.764;9.174;2023-05-07T12:26:03;23.40;64.30
674;DHT22;319;48.764;9.174;2023-05-07T12:28:40;23.00;69.00
674;DHT22;319;48.764;9.174;2023-05-07T12:31:08;22.60;74.70
674;DHT22;319;48.764;9.174;2023-05-07T12:33:36;22.30;82.20
674;DHT22;319;48.764;9.174;2023-05-07T12:36:05;22.00;90.10
674;DHT22;319;48.764;9.174;2023-05-07T12:38:37;21.70;92.80
674;DHT22;319;48.764;9.174;2023-05-07T12:41:06;21.20;96.00
674;DHT22;319;48.764;9.174;2023-05-07T12:43:34;20.80;99.10
674;DHT22;319;48.764;9.174;2023-05-07T12:46:03;20.50;99.90
674;DHT22;319;48.764;9.174;2023-05-07T12:48:31;20.00;99.90
674;DHT22;319;48.764;9.174;2023-05-07T12:54:01;18.70;99.90
674;DHT22;319;48.764;9.174;2023-05-07T12:56:35;18.30;99.90
674;DHT22;319;48.764;9.174;2023-05-07T12:59:02;17.80;99.90
674;DHT22;319;48.764;9.174;2023-05-07T13:01:29;17.30;99.90
674;DHT22;319;48.764;9.174;2023-05-07T13:04:00;17.20;99.90
674;DHT22;319;48.764;9.174;2023-05-07T13:06:29;16.90;99.90
674;DHT22;319;48.764;9.174;2023-05-07T13:08:56;16.80;99.90
674;DHT22;319;48.764;9.174;2023-05-07T13:11:23;16.70;99.90
674;DHT22;319;48.764;9.174;2023-05-07T13:13:52;16.70;99.90
674;DHT22;319;48.764;9.174;2023-05-07T13:16:19;16.70;99.90
674;DHT22;319;48.764;9.174;2023-05-07T13:18:45;16.60;99.90
674;DHT22;319;48.764;9.174;2023-05-07T13:21:12;16.70;99.90
674;DHT22;319;48.764;9.174;2023-05-07T13:23:39;16.70;99.90
674;DHT22;319;48.764;9.174;2023-05-07T13:26:06;16.50;99.90
674;DHT22;319;48.764;9.174;2023-05-07T13:28:33;16.50;99.90
674;DHT22;319;48.764;9.174;2023-05-07T13:31:02;16.50;99.90
674;DHT22;319;48.764;9.174;2023-05-07T13:33:32;16.50;99.90
674;DHT22;319;48.764;9.174;2023-05-07T13:35:59;16.40;99.90
674;DHT22;319;48.764;9.174;2023-05-07T13:38:26;16.30;99.90
674;DHT22;319;48.764;9.174;2023-05-07T13:40:53;16.30;99.90
674;DHT22;319;48.764;9.174;2023-05-07T13:43:20;16.30;99.90
674;DHT22;319;48.764;9.174;2023-05-07T13:45:46;16.20;99.90
674;DHT22;319;48.764;9.174;2023-05-07T13:48:17;16.20;99.90
674;DHT22;319;48.764;9.174;2023-05-07T13:50:44;16.20;99.90
674;DHT22;319;48.764;9.174;2023-05-07T13:53:11;16.20;99.90
674;DHT22;319;48.764;9.174;2023-05-07T13:55:38;16.20;99.90
674;DHT22;319;48.764;9.174;2023-05-07T13:58:05;16.30;99.90
674;DHT22;319;48.764;9.174;2023-05-07T14:00:32;16.30;99.90
674;DHT22;319;48.764;9.174;2023-05-07T14:03:02;16.40;99.90
674;DHT22;319;48.764;9.174;2023-05-07T14:05:34;16.40;99.90
674;DHT22;319;48.764;9.174;2023-05-07T14:08:01;16.40;99.90
674;DHT22;319;48.764;9.174;2023-05-07T14:10:29;16.50;99.90
674;DHT22;319;48.764;9.174;2023-05-07T14:12:57;16.50;99.90
674;DHT22;319;48.764;9.174;2023-05-07T14:15:24;16.60;99.90
674;DHT22;319;48.764;9.174;2023-05-07T14:17:51;16.50;99.90
674;DHT22;319;48.764;9.174;2023-05-07T14:20:18;16.60;99.90
674;DHT22;319;48.764;9.174;2023-05-07T14:22:49;16.60;99.90
674;DHT22;319;48.764;9.174;2023-05-07T14:25:16;16.60;99.90
674;DHT22;319;48.764;9.174;2023-05-07T14:27:43;16.70;99.90
674;DHT22;319;48.764;9.174;2023-05-07T14:30:11;16.70;99.90
674;DHT22;319;48.764;9.174;2023-05-07T14:32:38;16.70;99.90
674;DHT22;319;48.764;9.174;2023-05-07T14:35:05;16.80;99.90
674;DHT22;319;48.764;9.174;2023-05-07T14:37:32;16.70;99.90
674;DHT22;319;48.764;9.174;2023-05-07T14:40:00;16.60;99.90
674;DHT22;319;48.764;9.174;2023-05-07T14:42:27;16.70;99.90
674;DHT22;319;48.764;9.174;2023-05-07T14:44:54;16.70;99.90
674;DHT22;319;48.764;9.174;2023-05-07T14:47:21;16.80;99.90
674;DHT22;319;48.764;9.174;2023-05-07T14:49:48;16.70;99.90
674;DHT22;319;48.764;9.174;2023-05-07T14:52:15;16.70;99.90
674;DHT22;319;48.764;9.174;2023-05-07T14:54:42;16.70;99.90
674;DHT22;319;48.764;9.174;2023-05-07T14:57:11;16.70;99.90
674;DHT22;319;48.764;9.174;2023-05-07T14:59:40;16.70;99.90
674;DHT22;319;48.764;9.174;2023-05-07T15:02:07;16.70;99.90
674;DHT22;319;48.764;9.174;2023-05-07T15:04:39;16.80;99.90
674;DHT22;319;48.764;9.174;2023-05-07T15:07:11;16.90;99.90
674;DHT22;319;48.764;9.174;2023-05-07T15:09:40;16.90;99.90
674;DHT22;319;48.764;9.174;2023-05-07T15:12:12;17.00;99.90
674;DHT22;319;48.764;9.174;2023-05-07T15:14:39;17.00;99.90
674;DHT22;319;48.764;9.174;2023-05-07T15:17:06;17.00;99.90
674;DHT22;319;48.764;9.174;2023-05-07T15:19:34;17.10;99.90
674;DHT22;319;48.764;9.174;2023-05-07T15:22:01;17.20;99.90
674;DHT22;319;48.764;9.174;2023-05-07T15:24:28;17.20;99.90
674;DHT22;319;48.764;9.174;2023-05-07T15:26:55;17.40;99.90
674;DHT22;319;48.764;9.174;2023-05-07T15:29:25;17.60;99.90
674;DHT22;319;48.764;9.174;2023-05-07T15:31:52;17.70;99.90
674;DHT22;319;48.764;9.174;2023-05-07T15:34:21;17.80;99.90
674;DHT22;319;48.764;9.174;2023-05-07T15:36:49;17.90;99.90
674;DHT22;319;48.764;9.174;2023-05-07T15:39:17;17.90;99.90
674;DHT22;319;48.764;9.174;2023-05-07T15:41:44;18.00;99.90
674;DHT22;319;48.764;9.174;2023-05-07T15:44:11;18.10;99.90
674;DHT22;319;48.764;9.174;2023-05-07T15:46:39;18.10;99.90
674;DHT22;319;48.764;9.174;2023-05-07T15:49:06;18.10;99.90
674;DHT22;319;48.764;9.174;2023-05-07T15:51:34;18.20;99.90
674;DHT22;319;48.764;9.174;2023-05-07T15:54:02;18.10;99.90
674;DHT22;319;48.764;9.174;2023-05-07T15:56:30;18.10;99.90
674;DHT22;319;48.764;9.174;2023-05-07T15:58:58;18.10;99.90
674;DHT22;319;48.764;9.174;2023-05-07T16:01:25;18.10;99.90
674;DHT22;319;48.764;9.174;2023-05-07T16:03:56;18.10;99.90
674;DHT22;319;48.764;9.174;2023-05-07T16:06:24;18.10;99.90
674;DHT22;319;48.764;9.174;2023-05-07T16:08:53;18.10;99.90
674;DHT22;319;48.764;9.174;2023-05-07T16:11:19;18.10;99.90
674;DHT22;319;48.764;9.174;2023-05-07T16:13:46;18.20;99.90
674;DHT22;319;48.764;9.174;2023-05-07T16:16:13;18.20;99.90
674;DHT22;319;48.764;9.174;2023-05-07T16:18:40;18.30;99.90
674;DHT22;319;48.764;9.174;2023-05-07T16:21:08;18.30;99.90
674;DHT22;319;48.764;9.174;2023-05-07T16:23:36;18.30;99.90
674;DHT22;319;48.764;9.174;2023-05-07T16:26:03;18.30;99.90
674;DHT22;319;48.764;9.174;2023-05-07T16:28:30;18.30;99.90
674;DHT22;319;48.764;9.174;2023-05-07T16:31:00;18.30;99.90
674;DHT22;319;48.764;9.174;2023-05-07T16:33:27;18.30;99.90
674;DHT22;319;48.764;9.174;2023-05-07T16:35:54;18.40;99.90
674;DHT22;319;48.764;9.174;2023-05-07T16:38:23;18.40;99.90
674;DHT22;319;48.764;9.174;2023-05-07T16:40:51;18.50;99.90
674;DHT22;319;48.764;9.174;2023-05-07T16:43:18;18.50;99.90
674;DHT22;319;48.764;9.174;2023-05-07T16:45:45;18.50;99.90
674;DHT22;319;48.764;9.174;2023-05-07T16:48:12;18.50;99.90